Airfield :
LOGIN :

Register | Disclaimer

   EN    FR    IT 

 










Legend :    VFR   Marginal VFR   IFR   Intensive IFR   Very Intensive IFR
Visi :
Ceiling :
>= 8 km
>= 3000ft
5 to 8 km
1000 to 3000 ft
1500m to 5 km
500 to 1000 ft
800 to 1500m
200 to 500 ft
< 800m
< 200 ft
Symbols :   Thunderstorms  Fog  Heavy snow  Heavy precipitations  Wind > 20 kt
SIGMETs :     Misc.  Thunderstorms  Icing  Turbulence  Mountain Waves  Volcanic Ashes






- Airport Elevation : 126 ft
- IATA code : TIA


LATI - Rinas Mother Teresa Arpt - Tirana

CURRENT METAR :
  • 282250Z 17005KT 9999 SCT150 16/14 Q1014 NOSIG

EXPIRED METARs :
  • 282220Z 15004KT CAVOK 16/14 Q1014 NOSIG
  • 282150Z VRB01KT 9999 SCT190 16/14 Q1015 NOSIG
  • 282120Z 13003KT CAVOK 17/14 Q1015 NOSIG
  • 282050Z 17004KT CAVOK 17/13 Q1015 NOSIG
  • 282020Z 17003KT CAVOK 18/13 Q1015 NOSIG
  • 281950Z VRB02KT CAVOK 18/13 Q1015 NOSIG
  • 281920Z 12002KT CAVOK 19/13 Q1015 NOSIG
  • 281850Z VRB03KT 9999 FEW060 19/13 Q1014 NOSIG

TAF TAF LATI
Valid from the 28 at 18:00 until the 29 at 18:00 UTC


281700Z 2818/2918 VRB03KT 9999 SCT050 TX25/2910Z TN14/2903Z
PROB30
TEMPO 2902/2906 -TSRA FEW040CB
BECMG 2908/2910 30012KT FEW030CB
TEMPO 2912/2918 VRB15KT -TSRA



MET'MAP, your aeronautical weather chart ! - Copyright ORBIFLY December 2007 - Disclaimer

ORBIFLY MET'MAP TEAM :

Programming & Development : Alexandra Zaïnal
Original concept : Baudouin d'Aumeries
Technical & hardware support : Manuel Goepfert
Assistance : Marc-Olivier Méhu




SOURCES & CREDITS :

   NOAA